sensor_id;sensor_type;location;lat;lon;timestamp;temperature;humidity
14682;DHT22;7429;52.498;13.480;2024-02-21T00:00:09;8.20;99.90
14682;DHT22;7429;52.498;13.480;2024-02-21T00:03:13;8.30;99.90
14682;DHT22;7429;52.498;13.480;2024-02-21T00:06:17;8.30;99.90
14682;DHT22;7429;52.498;13.480;2024-02-21T00:09:20;8.30;99.90
14682;DHT22;7429;52.498;13.480;2024-02-21T00:12:23;8.30;99.90
14682;DHT22;7429;52.498;13.480;2024-02-21T00:15:28;8.40;99.90
14682;DHT22;7429;52.498;13.480;2024-02-21T00:18:31;8.30;99.90
14682;DHT22;7429;52.498;13.480;2024-02-21T00:21:35;8.30;99.90
14682;DHT22;7429;52.498;13.480;2024-02-21T00:24:38;8.30;99.90
14682;DHT22;7429;52.498;13.480;2024-02-21T00:27:44;8.30;99.90
14682;DHT22;7429;52.498;13.480;2024-02-21T00:30:48;8.30;99.90
14682;DHT22;7429;52.498;13.480;2024-02-21T00:33:52;8.30;99.90
14682;DHT22;7429;52.498;13.480;2024-02-21T00:36:55;8.30;99.90
14682;DHT22;7429;52.498;13.480;2024-02-21T00:39:58;8.30;99.90
14682;DHT22;7429;52.498;13.480;2024-02-21T00:43:02;8.30;99.90
14682;DHT22;7429;52.498;13.480;2024-02-21T00:46:07;8.30;99.90
14682;DHT22;7429;52.498;13.480;2024-02-21T00:49:10;8.20;99.90
14682;DHT22;7429;52.498;13.480;2024-02-21T00:52:14;8.20;99.90
14682;DHT22;7429;52.498;13.480;2024-02-21T00:55:17;8.10;99.90
14682;DHT22;7429;52.498;13.480;2024-02-21T00:58:20;8.10;99.90
14682;DHT22;7429;52.498;13.480;2024-02-21T01:01:25;8.10;99.90
14682;DHT22;7429;52.498;13.480;2024-02-21T01:04:29;8.10;99.90
14682;DHT22;7429;52.498;13.480;2024-02-21T01:07:34;8.10;99.90
14682;DHT22;7429;52.498;13.480;2024-02-21T01:10:37;8.20;99.90
14682;DHT22;7429;52.498;13.480;2024-02-21T01:13:41;8.20;99.90
14682;DHT22;7429;52.498;13.480;2024-02-21T01:16:45;8.20;99.90
14682;DHT22;7429;52.498;13.480;2024-02-21T01:19:49;8.20;99.90
14682;DHT22;7429;52.498;13.480;2024-02-21T01:22:56;8.20;99.90
14682;DHT22;7429;52.498;13.480;2024-02-21T01:25:59;8.30;99.90
14682;DHT22;7429;52.498;13.480;2024-02-21T01:29:02;8.30;99.90
14682;DHT22;7429;52.498;13.480;2024-02-21T01:32:07;8.30;99.90
14682;DHT22;7429;52.498;13.480;2024-02-21T01:35:11;8.30;99.90
14682;DHT22;7429;52.498;13.480;2024-02-21T01:38:14;8.30;99.90
14682;DHT22;7429;52.498;13.480;2024-02-21T01:41:18;8.30;99.90
14682;DHT22;7429;52.498;13.480;2024-02-21T01:44:21;8.30;99.90
14682;DHT22;7429;52.498;13.480;2024-02-21T01:47:25;8.30;99.90
14682;DHT22;7429;52.498;13.480;2024-02-21T01:50:29;8.40;99.90
14682;DHT22;7429;52.498;13.480;2024-02-21T01:53:36;8.30;99.90
14682;DHT22;7429;52.498;13.480;2024-02-21T01:56:41;8.40;99.90
14682;DHT22;7429;52.498;13.480;2024-02-21T01:59:45;8.40;99.90
14682;DHT22;7429;52.498;13.480;2024-02-21T02:02:49;8.40;99.90
14682;DHT22;7429;52.498;13.480;2024-02-21T02:05:53;8.40;99.90
14682;DHT22;7429;52.498;13.480;2024-02-21T02:08:56;8.30;99.90
14682;DHT22;7429;52.498;13.480;2024-02-21T02:12:00;8.40;99.90
14682;DHT22;7429;52.498;13.480;2024-02-21T02:15:04;8.40;99.90
14682;DHT22;7429;52.498;13.480;2024-02-21T02:18:10;8.40;99.90
14682;DHT22;7429;52.498;13.480;2024-02-21T02:26:22;8.40;99.90
14682;DHT22;7429;52.498;13.480;2024-02-21T02:29:25;8.40;99.90
14682;DHT22;7429;52.498;13.480;2024-02-21T02:32:28;8.30;99.90
14682;DHT22;7429;52.498;13.480;2024-02-21T02:35:31;8.20;99.90
14682;DHT22;7429;52.498;13.480;2024-02-21T02:38:37;8.20;99.90
14682;DHT22;7429;52.498;13.480;2024-02-21T02:41:41;8.20;99.90
14682;DHT22;7429;52.498;13.480;2024-02-21T02:44:44;8.10;99.90
14682;DHT22;7429;52.498;13.480;2024-02-21T02:47:48;8.10;99.90
14682;DHT22;7429;52.498;13.480;2024-02-21T02:50:51;8.10;99.90
14682;DHT22;7429;52.498;13.480;2024-02-21T02:53:54;8.00;99.90
14682;DHT22;7429;52.498;13.480;2024-02-21T02:57:00;8.00;99.90
14682;DHT22;7429;52.498;13.480;2024-02-21T03:00:06;8.00;99.90
14682;DHT22;7429;52.498;13.480;2024-02-21T03:03:10;8.00;99.90
14682;DHT22;7429;52.498;13.480;2024-02-21T03:06:14;8.00;99.90
14682;DHT22;7429;52.498;13.480;2024-02-21T03:09:17;8.00;99.90
14682;DHT22;7429;52.498;13.480;2024-02-21T03:12:21;8.00;99.90
14682;DHT22;7429;52.498;13.480;2024-02-21T03:15:29;7.90;99.90
14682;DHT22;7429;52.498;13.480;2024-02-21T03:18:33;8.00;99.90
14682;DHT22;7429;52.498;13.480;2024-02-21T03:21:36;7.90;99.90
14682;DHT22;7429;52.498;13.480;2024-02-21T03:24:39;7.90;99.90
14682;DHT22;7429;52.498;13.480;2024-02-21T03:27:45;7.90;99.90
14682;DHT22;7429;52.498;13.480;2024-02-21T03:30:49;7.90;99.90
14682;DHT22;7429;52.498;13.480;2024-02-21T03:33:52;7.90;99.90
14682;DHT22;7429;52.498;13.480;2024-02-21T03:36:55;7.90;99.90
14682;DHT22;7429;52.498;13.480;2024-02-21T03:39:59;7.90;99.90
14682;DHT22;7429;52.498;13.480;2024-02-21T03:43:03;7.90;99.90
14682;DHT22;7429;52.498;13.480;2024-02-21T03:46:07;7.90;99.90
14682;DHT22;7429;52.498;13.480;2024-02-21T03:49:10;7.80;99.90
14682;DHT22;7429;52.498;13.480;2024-02-21T03:52:15;7.80;99.90
14682;DHT22;7429;52.498;13.480;2024-02-21T03:55:18;7.80;99.90
14682;DHT22;7429;52.498;13.480;2024-02-21T03:58:24;7.80;99.90
14682;DHT22;7429;52.498;13.480;2024-02-21T04:01:27;7.80;99.90
14682;DHT22;7429;52.498;13.480;2024-02-21T04:04:31;7.80;99.90
14682;DHT22;7429;52.498;13.480;2024-02-21T04:07:34;7.70;99.90
14682;DHT22;7429;52.498;13.480;2024-02-21T04:10:37;7.80;99.90
14682;DHT22;7429;52.498;13.480;2024-02-21T04:13:42;7.70;99.90
14682;DHT22;7429;52.498;13.480;2024-02-21T04:16:45;7.70;99.90
14682;DHT22;7429;52.498;13.480;2024-02-21T04:19:48;7.70;99.90
14682;DHT22;7429;52.498;13.480;2024-02-21T04:22:52;7.70;99.90
14682;DHT22;7429;52.498;13.480;2024-02-21T04:25:55;7.70;99.90
14682;DHT22;7429;52.498;13.480;2024-02-21T04:29:00;7.70;99.90
14682;DHT22;7429;52.498;13.480;2024-02-21T04:32:05;7.70;99.90
14682;DHT22;7429;52.498;13.480;2024-02-21T04:35:10;7.70;99.90
14682;DHT22;7429;52.498;13.480;2024-02-21T04:38:13;7.70;99.90
14682;DHT22;7429;52.498;13.480;2024-02-21T04:41:16;7.70;99.90
14682;DHT22;7429;52.498;13.480;2024-02-21T04:44:21;7.60;99.90
14682;DHT22;7429;52.498;13.480;2024-02-21T04:47:24;7.70;99.90
14682;DHT22;7429;52.498;13.480;2024-02-21T04:50:28;7.70;99.90
14682;DHT22;7429;52.498;13.480;2024-02-21T04:53:31;7.70;99.90
14682;DHT22;7429;52.498;13.480;2024-02-21T04:56:34;7.60;99.90
14682;DHT22;7429;52.498;13.480;2024-02-21T04:59:39;7.60;99.90
14682;DHT22;7429;52.498;13.480;2024-02-21T05:02:42;7.60;99.90
14682;DHT22;7429;52.498;13.480;2024-02-21T05:05:45;7.70;99.90
14682;DHT22;7429;52.498;13.480;2024-02-21T05:08:48;7.70;99.90
14682;DHT22;7429;52.498;13.480;2024-02-21T05:11:51;7.70;99.90
14682;DHT22;7429;52.498;13.480;2024-02-21T05:14:56;7.70;99.90
14682;DHT22;7429;52.498;13.480;2024-02-21T05:17:59;7.70;99.90
14682;DHT22;7429;52.498;13.480;2024-02-21T05:21:03;7.60;99.90
14682;DHT22;7429;52.498;13.480;2024-02-21T05:24:07;7.70;99.90
14682;DHT22;7429;52.498;13.480;2024-02-21T05:27:10;7.70;99.90
14682;DHT22;7429;52.498;13.480;2024-02-21T05:30:17;7.70;99.90
14682;DHT22;7429;52.498;13.480;2024-02-21T05:33:21;7.70;99.90
14682;DHT22;7429;52.498;13.480;2024-02-21T05:36:24;7.80;99.90
14682;DHT22;7429;52.498;13.480;2024-02-21T05:39:30;7.80;99.90
14682;DHT22;7429;52.498;13.480;2024-02-21T05:42:33;7.70;99.90
14682;DHT22;7429;52.498;13.480;2024-02-21T05:45:38;7.80;99.90
14682;DHT22;7429;52.498;13.480;2024-02-21T05:48:41;7.70;99.90
14682;DHT22;7429;52.498;13.480;2024-02-21T05:51:44;7.70;99.90
14682;DHT22;7429;52.498;13.480;2024-02-21T05:54:48;7.70;99.90
14682;DHT22;7429;52.498;13.480;2024-02-21T05:57:53;7.60;99.90
14682;DHT22;7429;52.498;13.480;2024-02-21T06:00:58;7.70;99.90
14682;DHT22;7429;52.498;13.480;2024-02-21T06:04:04;7.70;99.90
14682;DHT22;7429;52.498;13.480;2024-02-21T06:07:07;7.70;99.90
14682;DHT22;7429;52.498;13.480;2024-02-21T06:10:11;7.70;99.90
14682;DHT22;7429;52.498;13.480;2024-02-21T06:13:14;7.70;99.90
14682;DHT22;7429;52.498;13.480;2024-02-21T06:16:19;7.70;99.90
14682;DHT22;7429;52.498;13.480;2024-02-21T06:19:23;7.70;99.90
14682;DHT22;7429;52.498;13.480;2024-02-21T06:22:26;7.70;99.90
14682;DHT22;7429;52.498;13.480;2024-02-21T06:25:30;7.70;99.90
14682;DHT22;7429;52.498;13.480;2024-02-21T06:28:33;7.70;99.90
14682;DHT22;7429;52.498;13.480;2024-02-21T06:31:38;7.70;99.90
14682;DHT22;7429;52.498;13.480;2024-02-21T06:34:41;7.70;99.90
14682;DHT22;7429;52.498;13.480;2024-02-21T06:37:44;7.70;99.90
14682;DHT22;7429;52.498;13.480;2024-02-21T06:40:52;7.70;99.90
14682;DHT22;7429;52.498;13.480;2024-02-21T06:43:56;7.70;99.90
14682;DHT22;7429;52.498;13.480;2024-02-21T06:47:01;7.80;99.90
14682;DHT22;7429;52.498;13.480;2024-02-21T06:50:06;7.80;99.90
14682;DHT22;7429;52.498;13.480;2024-02-21T06:53:10;7.80;99.90
14682;DHT22;7429;52.498;13.480;2024-02-21T06:56:13;7.80;99.90
14682;DHT22;7429;52.498;13.480;2024-02-21T06:59:17;7.80;99.90
14682;DHT22;7429;52.498;13.480;2024-02-21T07:02:21;7.90;99.90
14682;DHT22;7429;52.498;13.480;2024-02-21T07:05:25;7.90;99.90
14682;DHT22;7429;52.498;13.480;2024-02-21T07:08:28;7.90;99.90
14682;DHT22;7429;52.498;13.480;2024-02-21T07:11:31;7.90;99.90
14682;DHT22;7429;52.498;13.480;2024-02-21T07:14:35;7.90;99.90
14682;DHT22;7429;52.498;13.480;2024-02-21T07:17:40;7.90;99.90
14682;DHT22;7429;52.498;13.480;2024-02-21T07:20:43;7.90;99.90
14682;DHT22;7429;52.498;13.480;2024-02-21T07:23:48;7.90;99.90
14682;DHT22;7429;52.498;13.480;2024-02-21T07:26:51;8.00;99.90
14682;DHT22;7429;52.498;13.480;2024-02-21T07:29:54;7.90;99.90
14682;DHT22;7429;52.498;13.480;2024-02-21T07:32:59;7.90;99.90
14682;DHT22;7429;52.498;13.480;2024-02-21T07:36:06;7.90;99.90
14682;DHT22;7429;52.498;13.480;2024-02-21T07:39:10;8.00;99.90
14682;DHT22;7429;52.498;13.480;2024-02-21T07:42:13;8.00;99.90
14682;DHT22;7429;52.498;13.480;2024-02-21T07:45:18;8.00;99.90
14682;DHT22;7429;52.498;13.480;2024-02-21T07:48:25;8.10;99.90
14682;DHT22;7429;52.498;13.480;2024-02-21T07:51:28;8.10;99.90
14682;DHT22;7429;52.498;13.480;2024-02-21T07:54:31;8.00;99.90
14682;DHT22;7429;52.498;13.480;2024-02-21T07:57:34;8.00;99.90
14682;DHT22;7429;52.498;13.480;2024-02-21T08:00:40;8.10;99.90
14682;DHT22;7429;52.498;13.480;2024-02-21T08:03:45;8.10;99.90
14682;DHT22;7429;52.498;13.480;2024-02-21T08:06:51;8.20;99.90
14682;DHT22;7429;52.498;13.480;2024-02-21T08:09:55;8.10;99.90
14682;DHT22;7429;52.498;13.480;2024-02-21T08:12:59;8.10;99.90
14682;DHT22;7429;52.498;13.480;2024-02-21T08:16:03;8.10;99.90
14682;DHT22;7429;52.498;13.480;2024-02-21T08:19:08;8.10;99.90
14682;DHT22;7429;52.498;13.480;2024-02-21T08:22:12;8.20;99.90
14682;DHT22;7429;52.498;13.480;2024-02-21T08:25:15;8.20;99.90
14682;DHT22;7429;52.498;13.480;2024-02-21T08:28:18;8.20;99.90
14682;DHT22;7429;52.498;13.480;2024-02-21T08:31:21;8.20;99.90
14682;DHT22;7429;52.498;13.480;2024-02-21T08:34:28;8.20;99.90
14682;DHT22;7429;52.498;13.480;2024-02-21T08:37:34;8.30;99.90
14682;DHT22;7429;52.498;13.480;2024-02-21T08:40:39;8.30;99.90
14682;DHT22;7429;52.498;13.480;2024-02-21T08:43:42;8.40;99.90
14682;DHT22;7429;52.498;13.480;2024-02-21T08:46:46;8.40;99.90
14682;DHT22;7429;52.498;13.480;2024-02-21T08:49:51;8.40;99.90
14682;DHT22;7429;52.498;13.480;2024-02-21T08:52:54;8.60;99.90
14682;DHT22;7429;52.498;13.480;2024-02-21T08:55:58;8.50;99.90
14682;DHT22;7429;52.498;13.480;2024-02-21T08:59:02;8.60;99.90
14682;DHT22;7429;52.498;13.480;2024-02-21T09:02:06;8.60;99.90
14682;DHT22;7429;52.498;13.480;2024-02-21T09:05:12;8.60;99.90
14682;DHT22;7429;52.498;13.480;2024-02-21T09:08:16;8.70;99.90
14682;DHT22;7429;52.498;13.480;2024-02-21T09:11:20;8.70;99.90
14682;DHT22;7429;52.498;13.480;2024-02-21T09:14:23;8.80;99.90
14682;DHT22;7429;52.498;13.480;2024-02-21T09:17:26;8.80;99.90
14682;DHT22;7429;52.498;13.480;2024-02-21T09:20:32;8.90;99.90
14682;DHT22;7429;52.498;13.480;2024-02-21T09:23:36;8.90;99.90
14682;DHT22;7429;52.498;13.480;2024-02-21T09:26:39;8.90;99.90
14682;DHT22;7429;52.498;13.480;2024-02-21T09:29:42;9.00;99.90
14682;DHT22;7429;52.498;13.480;2024-02-21T09:32:46;9.00;99.90
14682;DHT22;7429;52.498;13.480;2024-02-21T09:35:50;9.10;99.90
14682;DHT22;7429;52.498;13.480;2024-02-21T09:38:55;9.10;99.90
14682;DHT22;7429;52.498;13.480;2024-02-21T09:41:59;9.10;99.90
14682;DHT22;7429;52.498;13.480;2024-02-21T09:45:12;9.20;99.90
14682;DHT22;7429;52.498;13.480;2024-02-21T09:48:38;9.20;99.90
14682;DHT22;7429;52.498;13.480;2024-02-21T09:52:04;9.30;99.90
14682;DHT22;7429;52.498;13.480;2024-02-21T09:55:10;9.40;99.90
14682;DHT22;7429;52.498;13.480;2024-02-21T09:58:15;9.50;99.90
14682;DHT22;7429;52.498;13.480;2024-02-21T10:01:19;9.50;99.90
14682;DHT22;7429;52.498;13.480;2024-02-21T10:04:35;9.60;99.90
14682;DHT22;7429;52.498;13.480;2024-02-21T10:07:40;9.70;99.90
14682;DHT22;7429;52.498;13.480;2024-02-21T10:10:44;9.70;99.90
14682;DHT22;7429;52.498;13.480;2024-02-21T10:13:48;9.70;99.90
14682;DHT22;7429;52.498;13.480;2024-02-21T10:16:57;9.80;99.90
14682;DHT22;7429;52.498;13.480;2024-02-21T10:20:08;9.80;99.90
14682;DHT22;7429;52.498;13.480;2024-02-21T10:23:14;9.90;99.90
14682;DHT22;7429;52.498;13.480;2024-02-21T10:26:18;9.80;99.90
14682;DHT22;7429;52.498;13.480;2024-02-21T10:29:22;9.90;99.90
14682;DHT22;7429;52.498;13.480;2024-02-21T10:32:25;9.90;99.90
14682;DHT22;7429;52.498;13.480;2024-02-21T10:35:31;10.00;99.90
14682;DHT22;7429;52.498;13.480;2024-02-21T10:38:37;10.00;99.90
14682;DHT22;7429;52.498;13.480;2024-02-21T10:41:41;10.00;99.90
14682;DHT22;7429;52.498;13.480;2024-02-21T10:44:51;10.00;99.90
14682;DHT22;7429;52.498;13.480;2024-02-21T10:47:56;10.00;99.90
14682;DHT22;7429;52.498;13.480;2024-02-21T10:51:07;10.00;99.90
14682;DHT22;7429;52.498;13.480;2024-02-21T10:54:33;10.10;99.90
14682;DHT22;7429;52.498;13.480;2024-02-21T10:57:43;10.20;99.90
14682;DHT22;7429;52.498;13.480;2024-02-21T11:00:46;10.20;99.90
14682;DHT22;7429;52.498;13.480;2024-02-21T11:03:53;10.20;99.90
14682;DHT22;7429;52.498;13.480;2024-02-21T11:06:57;10.30;99.90
14682;DHT22;7429;52.498;13.480;2024-02-21T11:10:04;10.20;99.90
14682;DHT22;7429;52.498;13.480;2024-02-21T11:13:10;10.20;99.90
14682;DHT22;7429;52.498;13.480;2024-02-21T11:16:22;10.10;99.90
14682;DHT22;7429;52.498;13.480;2024-02-21T11:19:27;10.00;99.90
14682;DHT22;7429;52.498;13.480;2024-02-21T11:22:41;10.00;99.90
14682;DHT22;7429;52.498;13.480;2024-02-21T11:25:48;10.10;99.90
14682;DHT22;7429;52.498;13.480;2024-02-21T11:28:58;10.30;99.90
14682;DHT22;7429;52.498;13.480;2024-02-21T11:32:03;10.40;99.90
14682;DHT22;7429;52.498;13.480;2024-02-21T11:35:07;10.50;99.90
14682;DHT22;7429;52.498;13.480;2024-02-21T11:38:12;10.50;99.90
14682;DHT22;7429;52.498;13.480;2024-02-21T11:41:19;10.60;99.90
14682;DHT22;7429;52.498;13.480;2024-02-21T11:44:22;10.60;99.90
14682;DHT22;7429;52.498;13.480;2024-02-21T11:47:28;10.70;99.90
14682;DHT22;7429;52.498;13.480;2024-02-21T11:50:31;10.80;99.90
14682;DHT22;7429;52.498;13.480;2024-02-21T11:53:36;10.90;99.90
14682;DHT22;7429;52.498;13.480;2024-02-21T11:56:53;10.90;99.90
14682;DHT22;7429;52.498;13.480;2024-02-21T11:59:56;11.00;99.90
14682;DHT22;7429;52.498;13.480;2024-02-21T12:03:06;11.10;99.90
14682;DHT22;7429;52.498;13.480;2024-02-21T12:06:09;11.20;99.90
14682;DHT22;7429;52.498;13.480;2024-02-21T12:09:14;11.40;99.90
14682;DHT22;7429;52.498;13.480;2024-02-21T12:12:20;11.70;99.90
14682;DHT22;7429;52.498;13.480;2024-02-21T12:15:26;11.80;99.90
14682;DHT22;7429;52.498;13.480;2024-02-21T12:18:30;11.80;99.90
14682;DHT22;7429;52.498;13.480;2024-02-21T12:21:33;11.80;99.90
14682;DHT22;7429;52.498;13.480;2024-02-21T12:24:38;11.80;99.90
14682;DHT22;7429;52.498;13.480;2024-02-21T12:27:50;11.80;99.90
14682;DHT22;7429;52.498;13.480;2024-02-21T12:30:53;11.90;99.90
14682;DHT22;7429;52.498;13.480;2024-02-21T12:33:57;11.90;99.90
14682;DHT22;7429;52.498;13.480;2024-02-21T12:37:01;11.90;99.90
14682;DHT22;7429;52.498;13.480;2024-02-21T12:40:06;11.90;99.90
14682;DHT22;7429;52.498;13.480;2024-02-21T12:43:11;12.10;99.90
14682;DHT22;7429;52.498;13.480;2024-02-21T12:46:16;12.30;99.90
14682;DHT22;7429;52.498;13.480;2024-02-21T12:49:20;12.30;99.90
14682;DHT22;7429;52.498;13.480;2024-02-21T12:52:24;12.10;99.90
14682;DHT22;7429;52.498;13.480;2024-02-21T12:55:27;12.00;99.90
14682;DHT22;7429;52.498;13.480;2024-02-21T12:58:32;12.10;99.90
14682;DHT22;7429;52.498;13.480;2024-02-21T13:01:35;12.30;99.90
14682;DHT22;7429;52.498;13.480;2024-02-21T13:04:40;12.60;99.90
14682;DHT22;7429;52.498;13.480;2024-02-21T13:07:44;12.80;99.90
14682;DHT22;7429;52.498;13.480;2024-02-21T13:10:48;12.70;99.90
14682;DHT22;7429;52.498;13.480;2024-02-21T13:13:57;12.90;99.90
14682;DHT22;7429;52.498;13.480;2024-02-21T13:17:01;12.90;99.90
14682;DHT22;7429;52.498;13.480;2024-02-21T13:20:06;12.80;99.90
14682;DHT22;7429;52.498;13.480;2024-02-21T13:23:13;12.70;99.90
14682;DHT22;7429;52.498;13.480;2024-02-21T13:26:17;12.50;99.90
14682;DHT22;7429;52.498;13.480;2024-02-21T13:29:23;12.60;99.90
14682;DHT22;7429;52.498;13.480;2024-02-21T13:32:26;12.50;99.90
14682;DHT22;7429;52.498;13.480;2024-02-21T13:35:31;12.50;99.90
14682;DHT22;7429;52.498;13.480;2024-02-21T13:38:34;12.40;99.90
14682;DHT22;7429;52.498;13.480;2024-02-21T13:41:37;12.30;99.90
14682;DHT22;7429;52.498;13.480;2024-02-21T13:44:42;12.30;99.90
14682;DHT22;7429;52.498;13.480;2024-02-21T13:47:45;12.20;99.90
14682;DHT22;7429;52.498;13.480;2024-02-21T13:50:50;12.20;99.90
14682;DHT22;7429;52.498;13.480;2024-02-21T13:53:53;12.00;99.90
14682;DHT22;7429;52.498;13.480;2024-02-21T13:56:56;12.00;99.90
14682;DHT22;7429;52.498;13.480;2024-02-21T14:00:02;11.90;99.90
14682;DHT22;7429;52.498;13.480;2024-02-21T14:03:13;11.80;99.90
14682;DHT22;7429;52.498;13.480;2024-02-21T14:06:16;11.80;99.90
14682;DHT22;7429;52.498;13.480;2024-02-21T14:09:20;11.60;99.90
14682;DHT22;7429;52.498;13.480;2024-02-21T14:12:23;11.80;99.90
14682;DHT22;7429;52.498;13.480;2024-02-21T14:15:28;11.80;99.90
14682;DHT22;7429;52.498;13.480;2024-02-21T14:18:32;11.80;99.90
14682;DHT22;7429;52.498;13.480;2024-02-21T14:21:35;11.80;99.90
14682;DHT22;7429;52.498;13.480;2024-02-21T14:24:39;11.80;99.90
14682;DHT22;7429;52.498;13.480;2024-02-21T14:27:43;11.80;99.90
14682;DHT22;7429;52.498;13.480;2024-02-21T14:30:47;11.80;99.90
14682;DHT22;7429;52.498;13.480;2024-02-21T14:33:55;11.90;99.90
14682;DHT22;7429;52.498;13.480;2024-02-21T14:36:58;11.90;99.90
14682;DHT22;7429;52.498;13.480;2024-02-21T14:40:02;11.90;99.90
14682;DHT22;7429;52.498;13.480;2024-02-21T14:43:06;11.90;99.90
14682;DHT22;7429;52.498;13.480;2024-02-21T14:46:11;11.90;99.90
14682;DHT22;7429;52.498;13.480;2024-02-21T14:49:15;11.90;99.90
14682;DHT22;7429;52.498;13.480;2024-02-21T14:52:22;11.90;99.90
14682;DHT22;7429;52.498;13.480;2024-02-21T14:55:26;11.90;99.90
14682;DHT22;7429;52.498;13.480;2024-02-21T14:58:29;11.90;99.90
14682;DHT22;7429;52.498;13.480;2024-02-21T15:01:37;11.90;99.90
14682;DHT22;7429;52.498;13.480;2024-02-21T15:04:41;11.90;99.90
14682;DHT22;7429;52.498;13.480;2024-02-21T15:07:47;11.80;99.90
14682;DHT22;7429;52.498;13.480;2024-02-21T15:10:50;11.80;99.90
14682;DHT22;7429;52.498;13.480;2024-02-21T15:13:53;11.80;99.90
14682;DHT22;7429;52.498;13.480;2024-02-21T15:16:58;11.80;99.90
14682;DHT22;7429;52.498;13.480;2024-02-21T15:20:02;11.70;99.90
14682;DHT22;7429;52.498;13.480;2024-02-21T15:23:10;11.70;99.90
14682;DHT22;7429;52.498;13.480;2024-02-21T15:26:14;11.70;99.90
14682;DHT22;7429;52.498;13.480;2024-02-21T15:29:17;11.60;99.90
14682;DHT22;7429;52.498;13.480;2024-02-21T15:32:22;11.60;99.90
14682;DHT22;7429;52.498;13.480;2024-02-21T15:35:26;11.60;99.90
14682;DHT22;7429;52.498;13.480;2024-02-21T15:38:29;11.60;99.90
14682;DHT22;7429;52.498;13.480;2024-02-21T15:41:33;11.60;99.90
14682;DHT22;7429;52.498;13.480;2024-02-21T15:44:37;11.60;99.90
14682;DHT22;7429;52.498;13.480;2024-02-21T15:47:42;11.50;99.90
14682;DHT22;7429;52.498;13.480;2024-02-21T15:50:45;11.40;99.90
14682;DHT22;7429;52.498;13.480;2024-02-21T15:53:48;11.30;99.90
14682;DHT22;7429;52.498;13.480;2024-02-21T15:56:52;11.20;99.90
14682;DHT22;7429;52.498;13.480;2024-02-21T15:59:55;11.10;99.90
14682;DHT22;7429;52.498;13.480;2024-02-21T16:03:00;11.00;99.90
14682;DHT22;7429;52.498;13.480;2024-02-21T16:06:05;11.00;99.90
14682;DHT22;7429;52.498;13.480;2024-02-21T16:09:08;10.90;99.90
14682;DHT22;7429;52.498;13.480;2024-02-21T16:12:12;10.80;99.90
14682;DHT22;7429;52.498;13.480;2024-02-21T16:15:16;10.80;99.90
14682;DHT22;7429;52.498;13.480;2024-02-21T16:18:21;10.80;99.90
14682;DHT22;7429;52.498;13.480;2024-02-21T16:21:26;10.70;99.90
14682;DHT22;7429;52.498;13.480;2024-02-21T16:24:30;10.60;99.90
14682;DHT22;7429;52.498;13.480;2024-02-21T16:27:34;10.50;99.90
14682;DHT22;7429;52.498;13.480;2024-02-21T16:30:38;10.50;99.90
14682;DHT22;7429;52.498;13.480;2024-02-21T16:33:45;10.40;99.90
14682;DHT22;7429;52.498;13.480;2024-02-21T16:36:49;10.40;99.90
14682;DHT22;7429;52.498;13.480;2024-02-21T16:39:53;10.30;99.90
14682;DHT22;7429;52.498;13.480;2024-02-21T16:42:56;10.20;99.90
14682;DHT22;7429;52.498;13.480;2024-02-21T16:46:00;10.10;99.90
14682;DHT22;7429;52.498;13.480;2024-02-21T16:49:05;10.10;99.90
14682;DHT22;7429;52.498;13.480;2024-02-21T16:52:09;10.00;99.90
14682;DHT22;7429;52.498;13.480;2024-02-21T16:55:12;9.90;99.90
14682;DHT22;7429;52.498;13.480;2024-02-21T16:58:18;9.90;99.90
14682;DHT22;7429;52.498;13.480;2024-02-21T17:01:21;9.90;99.90
14682;DHT22;7429;52.498;13.480;2024-02-21T17:04:25;9.80;99.90
14682;DHT22;7429;52.498;13.480;2024-02-21T17:07:30;9.70;99.90
14682;DHT22;7429;52.498;13.480;2024-02-21T17:10:36;9.70;99.90
14682;DHT22;7429;52.498;13.480;2024-02-21T17:13:42;9.60;99.90
14682;DHT22;7429;52.498;13.480;2024-02-21T17:16:45;9.60;99.90
14682;DHT22;7429;52.498;13.480;2024-02-21T17:19:51;9.50;99.90
14682;DHT22;7429;52.498;13.480;2024-02-21T17:22:54;9.40;99.90
14682;DHT22;7429;52.498;13.480;2024-02-21T17:25:59;9.40;99.90
14682;DHT22;7429;52.498;13.480;2024-02-21T17:29:02;9.40;99.90
14682;DHT22;7429;52.498;13.480;2024-02-21T17:32:06;9.30;99.90
14682;DHT22;7429;52.498;13.480;2024-02-21T17:35:12;9.30;99.90
14682;DHT22;7429;52.498;13.480;2024-02-21T17:38:18;9.20;99.90
14682;DHT22;7429;52.498;13.480;2024-02-21T17:41:21;9.20;99.90
14682;DHT22;7429;52.498;13.480;2024-02-21T17:44:25;9.10;99.90
14682;DHT22;7429;52.498;13.480;2024-02-21T17:47:28;9.10;99.90
14682;DHT22;7429;52.498;13.480;2024-02-21T17:50:34;9.10;99.90
14682;DHT22;7429;52.498;13.480;2024-02-21T17:53:37;9.00;99.90
14682;DHT22;7429;52.498;13.480;2024-02-21T17:56:40;9.00;99.90
14682;DHT22;7429;52.498;13.480;2024-02-21T17:59:44;8.80;99.90
14682;DHT22;7429;52.498;13.480;2024-02-21T18:02:48;8.80;99.90
14682;DHT22;7429;52.498;13.480;2024-02-21T18:05:53;8.70;99.90
14682;DHT22;7429;52.498;13.480;2024-02-21T18:08:56;8.70;99.90
14682;DHT22;7429;52.498;13.480;2024-02-21T18:12:01;8.70;99.90
14682;DHT22;7429;52.498;13.480;2024-02-21T18:15:05;8.70;99.90
14682;DHT22;7429;52.498;13.480;2024-02-21T18:18:09;8.60;99.90
14682;DHT22;7429;52.498;13.480;2024-02-21T18:21:14;8.60;99.90
14682;DHT22;7429;52.498;13.480;2024-02-21T18:24:17;8.50;99.90
14682;DHT22;7429;52.498;13.480;2024-02-21T18:27:20;8.40;99.90
14682;DHT22;7429;52.498;13.480;2024-02-21T18:30:24;8.50;99.90
14682;DHT22;7429;52.498;13.480;2024-02-21T18:33:28;8.40;99.90
14682;DHT22;7429;52.498;13.480;2024-02-21T18:36:32;8.40;99.90
14682;DHT22;7429;52.498;13.480;2024-02-21T18:39:39;8.30;99.90
14682;DHT22;7429;52.498;13.480;2024-02-21T18:42:43;8.40;99.90
14682;DHT22;7429;52.498;13.480;2024-02-21T18:45:49;8.30;99.90
14682;DHT22;7429;52.498;13.480;2024-02-21T18:48:54;8.30;99.90
14682;DHT22;7429;52.498;13.480;2024-02-21T18:51:59;8.40;99.90
14682;DHT22;7429;52.498;13.480;2024-02-21T18:55:03;8.40;99.90
14682;DHT22;7429;52.498;13.480;2024-02-21T18:58:07;8.40;99.90
14682;DHT22;7429;52.498;13.480;2024-02-21T19:01:11;8.30;99.90
14682;DHT22;7429;52.498;13.480;2024-02-21T19:04:15;8.30;99.90
14682;DHT22;7429;52.498;13.480;2024-02-21T19:07:19;8.30;99.90
14682;DHT22;7429;52.498;13.480;2024-02-21T19:10:23;8.30;99.90
14682;DHT22;7429;52.498;13.480;2024-02-21T19:13:26;8.20;99.90
14682;DHT22;7429;52.498;13.480;2024-02-21T19:16:29;8.20;99.90
14682;DHT22;7429;52.498;13.480;2024-02-21T19:19:33;8.20;99.90
14682;DHT22;7429;52.498;13.480;2024-02-21T19:22:38;8.20;99.90
14682;DHT22;7429;52.498;13.480;2024-02-21T19:25:42;8.20;99.90
14682;DHT22;7429;52.498;13.480;2024-02-21T19:28:45;8.20;99.90
14682;DHT22;7429;52.498;13.480;2024-02-21T19:31:49;8.30;99.90
14682;DHT22;7429;52.498;13.480;2024-02-21T19:34:53;8.30;99.90
14682;DHT22;7429;52.498;13.480;2024-02-21T19:37:58;8.30;99.90
14682;DHT22;7429;52.498;13.480;2024-02-21T19:41:05;8.30;99.90